createdAt,value
2018-03-14T00:00:39.538Z,0
2018-03-14T00:01:40.184Z,0
2018-03-14T00:02:40.553Z,0
2018-03-14T00:03:39.464Z,0
2018-03-14T00:04:39.967Z,0
2018-03-14T00:05:39.721Z,0
2018-03-14T00:06:39.699Z,0
2018-03-14T00:07:39.388Z,0
2018-03-14T00:08:39.364Z,0
2018-03-14T00:09:39.363Z,0
2018-03-14T00:10:39.047Z,0
2018-03-14T00:11:39.906Z,0
2018-03-14T00:12:39.573Z,0
2018-03-14T00:13:38.991Z,0
2018-03-14T00:14:38.975Z,0
2018-03-14T00:15:39.237Z,0
2018-03-14T00:16:39.485Z,0
2018-03-14T00:17:39.985Z,0
2018-03-14T00:18:39.184Z,0
2018-03-14T00:19:39.418Z,0
2018-03-14T00:20:39.400Z,0
2018-03-14T00:21:39.105Z,0
2018-03-14T00:22:39.384Z,0
2018-03-14T00:23:39.358Z,0
2018-03-14T00:24:39.039Z,0
2018-03-14T00:25:38.742Z,0
2018-03-14T00:26:39.583Z,0
2018-03-14T00:27:39.293Z,0
2018-03-14T00:28:38.956Z,0
2018-03-14T00:29:39.503Z,0
2018-03-14T00:30:39.202Z,0
2018-03-14T00:31:39.177Z,0
2018-03-14T00:32:38.883Z,0
2018-03-14T00:33:39.427Z,0
2018-03-14T00:34:38.839Z,0
2018-03-14T00:35:38.825Z,0
2018-03-14T00:36:39.351Z,0
2018-03-14T00:37:39.061Z,0
2018-03-14T00:38:39.337Z,0
2018-03-14T00:39:39.075Z,0
2018-03-14T00:40:38.715Z,0
2018-03-14T00:41:39.742Z,0
2018-03-14T00:42:39.248Z,0
2018-03-14T00:43:38.945Z,0
2018-03-14T00:44:38.942Z,0
2018-03-14T00:45:38.904Z,0
2018-03-14T00:46:38.594Z,0
2018-03-14T00:47:38.566Z,0
2018-03-14T00:48:38.899Z,0
2018-03-14T00:49:39.511Z,0
2018-03-14T00:50:38.797Z,0
2018-03-14T00:51:38.550Z,0
2018-03-14T00:52:38.191Z,0
2018-03-14T00:53:38.735Z,0
2018-03-14T00:54:38.148Z,0
2018-03-14T00:55:38.722Z,0
2018-03-14T00:56:38.916Z,0
2018-03-14T00:57:39.603Z,0
2018-03-14T00:58:38.616Z,0
2018-03-14T00:59:38.046Z,0
2018-03-14T01:00:38.576Z,0
2018-03-14T01:01:38.861Z,0
2018-03-14T01:02:37.986Z,0
2018-03-14T01:03:38.811Z,0
2018-03-14T01:04:40.004Z,0
2018-03-14T01:05:38.475Z,0
2018-03-14T01:06:38.471Z,0
2018-03-14T01:07:38.438Z,0
2018-03-14T01:08:38.426Z,0
2018-03-14T01:09:38.118Z,0
2018-03-14T01:10:38.726Z,0
2018-03-14T01:11:38.784Z,0
2018-03-14T01:12:39.073Z,0
2018-03-14T01:13:38.338Z,0
2018-03-14T01:14:38.304Z,0
2018-03-14T01:15:38.578Z,0
2018-03-14T01:16:37.973Z,0
2018-03-14T01:17:38.250Z,0
2018-03-14T01:18:38.227Z,0
2018-03-14T01:19:38.290Z,0
2018-03-14T01:20:39.260Z,0
2018-03-14T01:21:37.597Z,0
2018-03-14T01:22:37.574Z,0
2018-03-14T01:23:37.833Z,0
2018-03-14T01:24:38.085Z,0
2018-03-14T01:25:37.791Z,0
2018-03-14T01:26:38.071Z,0
2018-03-14T01:27:39.552Z,0
2018-03-14T01:28:38.027Z,0
2018-03-14T01:29:37.752Z,0
2018-03-14T01:30:37.706Z,0
2018-03-14T01:31:37.683Z,0
2018-03-14T01:32:37.917Z,0
2018-03-14T01:33:37.916Z,0
2018-03-14T01:34:37.999Z,0
2018-03-14T01:35:39.122Z,0
2018-03-14T01:36:38.115Z,0
2018-03-14T01:37:37.829Z,0
2018-03-14T01:38:37.244Z,0
2018-03-14T01:39:37.780Z,0
2018-03-14T01:40:37.485Z,0
2018-03-14T01:41:38.045Z,0
2018-03-14T01:42:38.002Z,0
2018-03-14T01:43:38.383Z,0
2018-03-14T01:44:37.624Z,0
2018-03-14T01:45:37.694Z,0
2018-03-14T01:46:37.359Z,0
2018-03-14T01:47:37.334Z,0
2018-03-14T01:48:37.315Z,0
2018-03-14T01:49:37.883Z,0
2018-03-14T01:50:37.281Z,0
2018-03-14T01:51:36.980Z,0
2018-03-14T01:52:37.252Z,0
2018-03-14T01:53:37.790Z,0
2018-03-14T01:54:37.232Z,0
2018-03-14T01:55:36.896Z,0
2018-03-14T01:56:36.876Z,0
2018-03-14T01:57:37.139Z,0
2018-03-14T01:58:39.240Z,0
2018-03-14T01:59:37.361Z,0
2018-03-14T02:00:37.070Z,0
2018-03-14T02:01:37.343Z,0
2018-03-14T02:02:37.594Z,0
2018-03-14T02:03:37.317Z,0
2018-03-14T02:04:37.270Z,0
2018-03-14T02:05:36.967Z,0
2018-03-14T02:06:38.925Z,0
2018-03-14T02:07:36.945Z,0
2018-03-14T02:08:36.629Z,0
2018-03-14T02:09:36.607Z,0
2018-03-14T02:10:37.159Z,0
2018-03-14T02:11:37.146Z,0
2018-03-14T02:12:37.106Z,0
2018-03-14T02:13:36.805Z,0
2018-03-14T02:14:36.795Z,0
2018-03-14T02:15:36.777Z,0
2018-03-14T02:16:37.295Z,0
2018-03-14T02:17:36.721Z,0
2018-03-14T02:18:37.267Z,0
2018-03-14T02:19:36.975Z,0
2018-03-14T02:20:36.388Z,0
2018-03-14T02:21:37.445Z,0
2018-03-14T02:22:36.622Z,0
2018-03-14T02:23:36.589Z,0
2018-03-14T02:24:36.885Z,0
2018-03-14T02:25:37.153Z,0
2018-03-14T02:26:36.542Z,0
2018-03-14T02:27:36.806Z,0
2018-03-14T02:28:36.791Z,0
2018-03-14T02:29:37.208Z,0
2018-03-14T02:30:36.747Z,0
2018-03-14T02:31:36.716Z,0
2018-03-14T02:32:36.692Z,0
2018-03-14T02:33:36.406Z,0
2018-03-14T02:34:36.388Z,0
2018-03-14T02:35:36.350Z,0
2018-03-14T02:36:36.493Z,0
2018-03-14T02:37:37.595Z,0
2018-03-14T02:38:36.592Z,0
2018-03-14T02:39:36.549Z,0
2018-03-14T02:40:36.245Z,0
2018-03-14T02:41:36.235Z,0
2018-03-14T02:42:36.211Z,0
2018-03-14T02:43:35.919Z,0
2018-03-14T02:44:37.956Z,0
2018-03-14T02:45:36.138Z,0
2018-03-14T02:46:36.641Z,0
2018-03-14T02:47:35.826Z,0
2018-03-14T02:48:36.340Z,0
2018-03-14T02:49:36.363Z,0
2018-03-14T02:50:36.557Z,0
2018-03-14T02:51:36.547Z,0
2018-03-14T02:52:36.265Z,0
2018-03-14T02:53:35.704Z,0
2018-03-14T02:54:35.946Z,0
2018-03-14T02:55:36.192Z,0
2018-03-14T02:56:35.638Z,0
2018-03-14T02:57:35.882Z,0
2018-03-14T02:58:36.397Z,0
2018-03-14T02:59:36.113Z,0
2018-03-14T03:00:35.826Z,0
2018-03-14T03:01:36.065Z,0
2018-03-14T03:02:36.047Z,0
2018-03-14T03:03:36.296Z,0
2018-03-14T03:04:36.008Z,0
2018-03-14T03:05:35.721Z,0
2018-03-14T03:06:35.702Z,0
2018-03-14T03:07:35.680Z,0
2018-03-14T03:08:36.196Z,0
2018-03-14T03:09:36.166Z,0
2018-03-14T03:10:35.884Z,0
2018-03-14T03:11:35.869Z,0
2018-03-14T03:12:35.845Z,0
2018-03-14T03:13:35.829Z,0
2018-03-14T03:14:35.803Z,0
2018-03-14T03:15:35.516Z,0
2018-03-14T03:16:35.232Z,0
2018-03-14T03:17:35.484Z,0
2018-03-14T03:18:35.712Z,0
2018-03-14T03:19:35.966Z,0
2018-03-14T03:20:35.413Z,0
2018-03-14T03:21:35.919Z,0
2018-03-14T03:22:35.638Z,0
2018-03-14T03:23:35.353Z,0
2018-03-14T03:24:35.597Z,0
2018-03-14T03:25:35.362Z,0
2018-03-14T03:26:35.028Z,0
2018-03-14T03:27:35.539Z,0
2018-03-14T03:28:35.514Z,0
2018-03-14T03:29:35.227Z,0
2018-03-14T03:30:35.227Z,0
2018-03-14T03:31:35.205Z,0
2018-03-14T03:32:35.442Z,0
2018-03-14T03:33:35.413Z,0
2018-03-14T03:34:35.396Z,0
2018-03-14T03:35:35.106Z,0
2018-03-14T03:36:35.351Z,0
2018-03-14T03:37:35.379Z,0
2018-03-14T03:38:35.571Z,0
2018-03-14T03:39:35.286Z,0
2018-03-14T03:40:34.738Z,0
2018-03-14T03:41:35.246Z,0
2018-03-14T03:42:35.490Z,0
2018-03-14T03:43:34.941Z,0
2018-03-14T03:44:35.654Z,0
2018-03-14T03:45:34.639Z,0
2018-03-14T03:46:34.884Z,0
2018-03-14T03:47:34.864Z,0
2018-03-14T03:48:35.365Z,0
2018-03-14T03:49:35.345Z,0
2018-03-14T03:50:35.065Z,0
2018-03-14T03:51:35.310Z,0
2018-03-14T03:52:34.767Z,0
2018-03-14T03:53:34.743Z,0
2018-03-14T03:54:34.718Z,0
2018-03-14T03:55:34.960Z,0
2018-03-14T03:56:34.687Z,0
2018-03-14T03:57:34.389Z,0
2018-03-14T03:58:34.641Z,0
2018-03-14T03:59:34.882Z,0
2018-03-14T04:00:34.630Z,0
2018-03-14T04:01:34.832Z,0
2018-03-14T04:02:34.556Z,0
2018-03-14T04:03:34.802Z,0
2018-03-14T04:04:34.771Z,0
2018-03-14T04:05:34.487Z,0
2018-03-14T04:06:34.733Z,0
2018-03-14T04:07:34.450Z,0
2018-03-14T04:08:34.440Z,0
2018-03-14T04:09:34.681Z,0
2018-03-14T04:10:34.124Z,0
2018-03-14T04:11:34.369Z,0
2018-03-14T04:12:34.344Z,0
2018-03-14T04:13:34.324Z,0
2018-03-14T04:14:34.660Z,0
2018-03-14T04:15:34.814Z,0
2018-03-14T04:16:34.836Z,0
2018-03-14T04:17:34.512Z,0
2018-03-14T04:18:33.954Z,0
2018-03-14T04:19:33.941Z,0
2018-03-14T04:20:34.186Z,0
2018-03-14T04:21:34.186Z,0
2018-03-14T04:22:34.142Z,0
2018-03-14T04:23:34.388Z,0
2018-03-14T04:24:34.632Z,0
2018-03-14T04:25:34.344Z,0
2018-03-14T04:26:34.054Z,0
2018-03-14T04:27:34.036Z,0
2018-03-14T04:28:34.279Z,0
2018-03-14T04:29:34.256Z,0
2018-03-14T04:30:34.503Z,0
2018-03-14T04:31:34.018Z,0
2018-03-14T04:32:34.468Z,0
2018-03-14T04:33:33.647Z,0
2018-03-14T04:34:33.627Z,0
2018-03-14T04:35:34.154Z,0
2018-03-14T04:36:34.119Z,0
2018-03-14T04:37:34.095Z,0
2018-03-14T04:38:34.081Z,0
2018-03-14T04:39:34.064Z,0
2018-03-14T04:40:33.776Z,0
2018-03-14T04:41:34.278Z,0
2018-03-14T04:42:33.731Z,0
2018-03-14T04:43:33.712Z,0
2018-03-14T04:44:33.689Z,0
2018-03-14T04:45:33.672Z,0
2018-03-14T04:46:33.910Z,0
2018-03-14T04:47:33.631Z,0
2018-03-14T04:48:34.147Z,0
2018-03-14T04:49:33.858Z,0
2018-03-14T04:50:33.577Z,0
2018-03-14T04:51:33.547Z,0
2018-03-14T04:52:33.792Z,0
2018-03-14T04:53:33.767Z,0
2018-03-14T04:54:33.758Z,0
2018-03-14T04:55:33.469Z,0
2018-03-14T04:56:33.445Z,0
2018-03-14T04:57:33.429Z,0
2018-03-14T04:58:33.671Z,0
2018-03-14T04:59:33.650Z,0
2018-03-14T05:00:33.623Z,0
2018-03-14T05:01:33.611Z,0
2018-03-14T05:02:33.848Z,0
2018-03-14T05:03:33.575Z,0
2018-03-14T05:04:33.551Z,0
2018-03-14T05:05:33.261Z,0
2018-03-14T05:06:33.237Z,0
2018-03-14T05:07:33.929Z,0
2018-03-14T05:08:33.470Z,0
2018-03-14T05:09:33.175Z,0
2018-03-14T05:10:33.162Z,0
2018-03-14T05:11:33.674Z,0
2018-03-14T05:12:33.646Z,0
2018-03-14T05:13:33.356Z,0
2018-03-14T05:14:32.845Z,0
2018-03-14T05:15:33.317Z,0
2018-03-14T05:16:33.033Z,0
2018-03-14T05:17:33.548Z,0
2018-03-14T05:18:33.261Z,0
2018-03-14T05:19:33.240Z,0
2018-03-14T05:20:32.691Z,0
2018-03-14T05:21:32.935Z,0
2018-03-14T05:22:32.917Z,4
2018-03-14T05:23:33.425Z,4
2018-03-14T05:24:33.137Z,0
2018-03-14T05:25:33.114Z,4
2018-03-14T05:26:33.099Z,4
2018-03-14T05:27:33.078Z,4
2018-03-14T05:28:33.054Z,8
2018-03-14T05:29:32.500Z,8
2018-03-14T05:30:32.750Z,8
2018-03-14T05:31:32.463Z,8
2018-03-14T05:32:32.980Z,12
2018-03-14T05:33:32.689Z,12
2018-03-14T05:34:32.765Z,16
2018-03-14T05:35:32.906Z,20
2018-03-14T05:36:33.162Z,20
2018-03-14T05:37:32.345Z,28
2018-03-14T05:38:33.124Z,32
2018-03-14T05:39:32.826Z,36
2018-03-14T05:40:33.163Z,40
2018-03-14T05:41:32.522Z,48
2018-03-14T05:42:32.239Z,48
2018-03-14T05:43:32.490Z,56
2018-03-14T05:44:33.660Z,56
2018-03-14T05:45:32.177Z,64
2018-03-14T05:46:32.687Z,68
2018-03-14T05:47:32.664Z,72
2018-03-14T05:48:32.378Z,76
2018-03-14T05:49:32.627Z,84
2018-03-14T05:50:32.339Z,88
2018-03-14T05:51:32.316Z,92
2018-03-14T05:52:32.561Z,104
2018-03-14T05:53:32.548Z,112
2018-03-14T05:54:32.846Z,124
2018-03-14T05:55:32.518Z,132
2018-03-14T05:56:32.223Z,136
2018-03-14T05:57:32.484Z,144
2018-03-14T05:58:32.480Z,148
2018-03-14T05:59:32.167Z,156
2018-03-14T06:00:32.142Z,164
2018-03-14T06:01:32.385Z,172
2018-03-14T06:02:32.104Z,184
2018-03-14T06:03:32.341Z,196
2018-03-14T06:04:32.059Z,208
2018-03-14T06:05:32.355Z,220
2018-03-14T06:06:31.748Z,236
2018-03-14T06:07:32.261Z,252
2018-03-14T06:08:31.976Z,264
2018-03-14T06:09:31.952Z,284
2018-03-14T06:10:32.277Z,308
2018-03-14T06:11:31.911Z,336
2018-03-14T06:12:31.626Z,372
2018-03-14T06:13:31.604Z,404
2018-03-14T06:14:31.850Z,444
2018-03-14T06:15:31.827Z,468
2018-03-14T06:16:32.086Z,496
2018-03-14T06:17:31.794Z,524
2018-03-14T06:18:32.040Z,560
2018-03-14T06:19:31.486Z,600
2018-03-14T06:20:32.258Z,628
2018-03-14T06:21:31.716Z,648
2018-03-14T06:22:31.959Z,688
2018-03-14T06:23:31.668Z,752
2018-03-14T06:24:31.948Z,816
2018-03-14T06:25:31.903Z,860
2018-03-14T06:26:31.350Z,912
2018-03-14T06:27:32.124Z,972
2018-03-14T06:28:31.564Z,1004
2018-03-14T06:29:31.545Z,996
2018-03-14T06:30:32.049Z,992
2018-03-14T06:31:31.770Z,1012
2018-03-14T06:32:31.748Z,1032
2018-03-14T06:33:31.726Z,1048
2018-03-14T06:34:31.441Z,1048
2018-03-14T06:35:31.684Z,1056
2018-03-14T06:36:31.667Z,1076
2018-03-14T06:37:31.119Z,1120
2018-03-14T06:38:31.907Z,1184
2018-03-14T06:39:31.604Z,1252
2018-03-14T06:40:31.848Z,1328
2018-03-14T06:41:31.298Z,1368
2018-03-14T06:42:31.282Z,1356
2018-03-14T06:43:31.516Z,1380
2018-03-14T06:44:31.238Z,1560
2018-03-14T06:45:31.753Z,1856
2018-03-14T06:46:31.464Z,2100
2018-03-14T06:47:31.440Z,2172
2018-03-14T06:48:31.481Z,2224
2018-03-14T06:49:30.872Z,2328
2018-03-14T06:50:31.173Z,2408
2018-03-14T06:51:31.101Z,2464
2018-03-14T06:52:31.086Z,2504
2018-03-14T06:53:31.318Z,2528
2018-03-14T06:54:31.302Z,2616
2018-03-14T06:55:31.015Z,2720
2018-03-14T06:56:31.529Z,2788
2018-03-14T06:57:31.250Z,2840
2018-03-14T06:58:30.974Z,2836
2018-03-14T06:59:30.675Z,2820
2018-03-14T07:00:30.929Z,2828
2018-03-14T07:01:31.163Z,2792
2018-03-14T07:02:31.140Z,2752
2018-03-14T07:03:31.122Z,2756
2018-03-14T07:04:31.374Z,2760
2018-03-14T07:05:31.078Z,2744
2018-03-14T07:06:31.064Z,2764
2018-03-14T07:07:31.043Z,2816
2018-03-14T07:08:30.754Z,2892
2018-03-14T07:09:30.731Z,2912
2018-03-14T07:10:31.248Z,2844
2018-03-14T07:11:30.965Z,2740
2018-03-14T07:12:30.414Z,2660
2018-03-14T07:13:30.658Z,2692
2018-03-14T07:14:30.896Z,2896
2018-03-14T07:15:30.625Z,3132
2018-03-14T07:16:30.593Z,3240
2018-03-14T07:17:31.246Z,3228
2018-03-14T07:18:30.821Z,3336
2018-03-14T07:19:30.806Z,3436
2018-03-14T07:20:30.521Z,3428
2018-03-14T07:21:30.503Z,3440
2018-03-14T07:22:30.748Z,3492
2018-03-14T07:23:30.725Z,3512
2018-03-14T07:24:30.438Z,3444
2018-03-14T07:25:30.952Z,3412
2018-03-14T07:26:30.397Z,3404
2018-03-14T07:27:30.639Z,3492
2018-03-14T07:28:30.901Z,3640
2018-03-14T07:29:30.073Z,3764
2018-03-14T07:30:30.591Z,3908
2018-03-14T07:31:30.559Z,4136
2018-03-14T07:32:30.545Z,4408
2018-03-14T07:33:30.792Z,4620
2018-03-14T07:34:30.238Z,4644
2018-03-14T07:35:29.950Z,4660
2018-03-14T07:36:30.265Z,4756
2018-03-14T07:37:30.185Z,4972
2018-03-14T07:38:30.424Z,5196
2018-03-14T07:39:30.680Z,5276
2018-03-14T07:40:30.652Z,5252
2018-03-14T07:41:30.372Z,5288
2018-03-14T07:42:30.346Z,5272
2018-03-14T07:43:30.329Z,5344
2018-03-14T07:44:30.041Z,5556
2018-03-14T07:45:30.221Z,5612
2018-03-14T07:46:30.534Z,5524
2018-03-14T07:47:30.514Z,5588
2018-03-14T07:48:30.239Z,5724
2018-03-14T07:49:30.211Z,5828
2018-03-14T07:50:29.931Z,5860
2018-03-14T07:51:29.905Z,5852
2018-03-14T07:52:30.416Z,5940
2018-03-14T07:53:29.872Z,6140
2018-03-14T07:54:30.119Z,6340
2018-03-14T07:55:30.093Z,6300
2018-03-14T07:56:30.346Z,6136
2018-03-14T07:57:29.796Z,6116
2018-03-14T07:58:30.043Z,6340
2018-03-14T07:59:30.025Z,6536
2018-03-14T08:00:29.738Z,6476
2018-03-14T08:01:29.713Z,6396
2018-03-14T08:02:29.961Z,6460
2018-03-14T08:03:29.942Z,6628
2018-03-14T08:04:29.666Z,6868
2018-03-14T08:05:29.644Z,7200
2018-03-14T08:06:30.164Z,7528
2018-03-14T08:07:29.868Z,7636
2018-03-14T08:08:29.853Z,7564
2018-03-14T08:09:29.574Z,7580
2018-03-14T08:10:30.077Z,7832
2018-03-14T08:11:29.577Z,7932
2018-03-14T08:12:29.514Z,7956
2018-03-14T08:13:30.468Z,7948
2018-03-14T08:14:29.480Z,8004
2018-03-14T08:15:29.193Z,7960
2018-03-14T08:16:29.445Z,7900
2018-03-14T08:17:29.157Z,7864
2018-03-14T08:18:29.926Z,7980
2018-03-14T08:19:29.655Z,8348
2018-03-14T08:20:29.685Z,8876
2018-03-14T08:21:29.655Z,9280
2018-03-14T08:22:29.331Z,9584
2018-03-14T08:23:29.602Z,10016
2018-03-14T08:24:29.312Z,10192
2018-03-14T08:25:29.543Z,10056
2018-03-14T08:26:29.258Z,10100
2018-03-14T08:27:29.511Z,10720
2018-03-14T08:28:29.758Z,11024
2018-03-14T08:29:29.475Z,11028
2018-03-14T08:30:29.779Z,11092
2018-03-14T08:31:29.498Z,10608
2018-03-14T08:32:29.429Z,10452
2018-03-14T08:33:29.664Z,10364
2018-03-14T08:34:29.468Z,10708
2018-03-14T08:35:29.363Z,11572
2018-03-14T08:36:29.358Z,12076
2018-03-14T08:37:28.809Z,10732
2018-03-14T08:38:29.056Z,10336
2018-03-14T08:39:29.577Z,10496
2018-03-14T08:40:29.015Z,10820
2018-03-14T08:41:29.006Z,10916
2018-03-14T08:42:29.259Z,11024
2018-03-14T08:43:29.292Z,11064
2018-03-14T08:44:28.959Z,11452
2018-03-14T08:45:28.679Z,11936
2018-03-14T08:46:28.924Z,12512
2018-03-14T08:47:28.911Z,15248
2018-03-14T08:48:28.630Z,18368
2018-03-14T08:49:29.147Z,12400
2018-03-14T08:50:28.602Z,11736
2018-03-14T08:51:28.854Z,12024
2018-03-14T08:52:28.832Z,12472
2018-03-14T08:53:28.813Z,12848
2018-03-14T08:54:28.536Z,14140
2018-03-14T08:55:28.783Z,12972
2018-03-14T08:56:29.039Z,12600
2018-03-14T08:57:28.489Z,11912
2018-03-14T08:58:29.003Z,11648
2018-03-14T08:59:28.753Z,12596
2018-03-14T09:00:29.234Z,17152
2018-03-14T09:01:29.223Z,12664
2018-03-14T09:02:29.263Z,12804
2018-03-14T09:03:28.928Z,16416
2018-03-14T09:04:28.388Z,14232
2018-03-14T09:05:28.636Z,13576
2018-03-14T09:06:28.892Z,14148
2018-03-14T09:07:28.938Z,13452
2018-03-14T09:08:28.597Z,14776
2018-03-14T09:09:28.574Z,16896
2018-03-14T09:10:28.845Z,22784
2018-03-14T09:11:28.811Z,28096
2018-03-14T09:12:28.806Z,27840
2018-03-14T09:13:28.519Z,26944
2018-03-14T09:14:28.780Z,18560
2018-03-14T09:15:28.762Z,17056
2018-03-14T09:16:28.484Z,15856
2018-03-14T09:17:28.728Z,13936
2018-03-14T09:18:28.983Z,11392
2018-03-14T09:19:28.448Z,9432
2018-03-14T09:20:28.426Z,8412
2018-03-14T09:21:28.746Z,8108
2018-03-14T09:22:28.398Z,7912
2018-03-14T09:23:28.916Z,7848
2018-03-14T09:24:28.638Z,8176
2018-03-14T09:25:28.368Z,8616
2018-03-14T09:26:28.622Z,9140
2018-03-14T09:27:28.076Z,10072
2018-03-14T09:28:28.596Z,11192
2018-03-14T09:29:28.579Z,11912
2018-03-14T09:30:28.030Z,12056
2018-03-14T09:31:28.557Z,11832
2018-03-14T09:32:28.267Z,12064
2018-03-14T09:33:28.785Z,12292
2018-03-14T09:34:28.510Z,12604
2018-03-14T09:35:28.488Z,13140
2018-03-14T09:36:28.476Z,14156
2018-03-14T09:37:28.475Z,14512
2018-03-14T09:38:28.180Z,14096
2018-03-14T09:39:28.173Z,13960
2018-03-14T09:40:28.431Z,12948
2018-03-14T09:41:28.411Z,11692
2018-03-14T09:42:28.395Z,10216
2018-03-14T09:43:28.393Z,9092
2018-03-14T09:44:27.844Z,8144
2018-03-14T09:45:28.561Z,7620
2018-03-14T09:46:28.338Z,7252
2018-03-14T09:47:28.069Z,6928
2018-03-14T09:48:28.094Z,6464
2018-03-14T09:49:28.034Z,6008
2018-03-14T09:50:28.550Z,5576
2018-03-14T09:51:28.671Z,5304
2018-03-14T09:52:28.000Z,5072
2018-03-14T09:53:28.239Z,4936
2018-03-14T09:54:28.226Z,4840
2018-03-14T09:55:28.208Z,4844
2018-03-14T09:56:28.470Z,4860
2018-03-14T09:57:28.183Z,4884
2018-03-14T09:58:28.168Z,5016
2018-03-14T09:59:27.888Z,5100
2018-03-14T10:00:28.139Z,5180
2018-03-14T10:01:28.391Z,5324
2018-03-14T10:02:28.380Z,5476
2018-03-14T10:03:28.091Z,5508
2018-03-14T10:04:28.082Z,5560
2018-03-14T10:05:27.803Z,5704
2018-03-14T10:06:27.515Z,5988
2018-03-14T10:07:27.761Z,6080
2018-03-14T10:08:27.751Z,6276
2018-03-14T10:09:27.735Z,6464
2018-03-14T10:10:28.248Z,6944
2018-03-14T10:11:28.233Z,7380
2018-03-14T10:12:27.949Z,7776
2018-03-14T10:13:27.670Z,8436
2018-03-14T10:14:27.652Z,9200
2018-03-14T10:15:27.904Z,10052
2018-03-14T10:16:27.889Z,10744
2018-03-14T10:17:27.872Z,11088
2018-03-14T10:18:27.588Z,11288
2018-03-14T10:19:27.839Z,11796
2018-03-14T10:20:27.566Z,12108
2018-03-14T10:21:27.809Z,12120
2018-03-14T10:22:28.179Z,12932
2018-03-14T10:23:27.778Z,13792
2018-03-14T10:24:27.498Z,14380
2018-03-14T10:25:27.623Z,14888
2018-03-14T10:26:27.472Z,15804
2018-03-14T10:27:27.192Z,18240
2018-03-14T10:28:27.441Z,20640
2018-03-14T10:29:28.017Z,17568
2018-03-14T10:30:27.412Z,17408
2018-03-14T10:31:27.664Z,18976
2018-03-14T10:32:27.376Z,22016
2018-03-14T10:33:27.460Z,22272
2018-03-14T10:34:27.612Z,18880
2018-03-14T10:35:27.866Z,21152
2018-03-14T10:36:27.585Z,28960
2018-03-14T10:37:27.571Z,35072
2018-03-14T10:38:27.842Z,32960
2018-03-14T10:39:27.543Z,30592
2018-03-14T10:40:27.531Z,21888
2018-03-14T10:41:27.523Z,24480
2018-03-14T10:42:27.262Z,24384
2018-03-14T10:43:27.765Z,21344
2018-03-14T10:44:27.773Z,22016
2018-03-14T10:45:27.201Z,22016
2018-03-14T10:46:27.723Z,23168
2018-03-14T10:47:27.445Z,19968
2018-03-14T10:48:27.697Z,17536
2018-03-14T10:49:27.220Z,16928
2018-03-14T10:50:27.148Z,16604
2018-03-14T10:51:27.131Z,17280
2018-03-14T10:52:27.646Z,18656
2018-03-14T10:53:27.113Z,19424
2018-03-14T10:54:27.382Z,19488
2018-03-14T10:55:27.638Z,19712
2018-03-14T10:56:27.332Z,19488
2018-03-14T10:57:27.320Z,22400
2018-03-14T10:58:27.311Z,42912
2018-03-14T10:59:27.296Z,76480
2018-03-14T11:00:26.757Z,65760
2018-03-14T11:01:27.543Z,48000
2018-03-14T11:02:27.533Z,41664
2018-03-14T11:03:26.987Z,50432
2018-03-14T11:04:27.025Z,50016
2018-03-14T11:05:27.230Z,45056
2018-03-14T11:06:27.490Z,51392
2018-03-14T11:07:26.691Z,46592
2018-03-14T11:08:27.215Z,51456
2018-03-14T11:09:27.248Z,52800
2018-03-14T11:10:27.191Z,22368
2018-03-14T11:11:27.187Z,39168
2018-03-14T11:12:27.441Z,25856
2018-03-14T11:13:27.163Z,27488
2018-03-14T11:14:27.168Z,18944
2018-03-14T11:15:27.151Z,18368
2018-03-14T11:16:27.448Z,18816
2018-03-14T11:17:27.146Z,19328
2018-03-14T11:18:26.875Z,18976
2018-03-14T11:19:27.406Z,18112
2018-03-14T11:20:27.269Z,18432
2018-03-14T11:21:27.165Z,18368
2018-03-14T11:22:27.106Z,17056
2018-03-14T11:23:26.834Z,16288
2018-03-14T11:24:26.824Z,17376
2018-03-14T11:25:26.820Z,17888
2018-03-14T11:26:27.335Z,18752
2018-03-14T11:27:26.539Z,16076
2018-03-14T11:28:26.794Z,15972
2018-03-14T11:29:26.521Z,17632
2018-03-14T11:30:27.048Z,18304
2018-03-14T11:31:27.029Z,19392
2018-03-14T11:32:26.493Z,20544
2018-03-14T11:33:27.274Z,22752
2018-03-14T11:34:27.285Z,25792
2018-03-14T11:35:26.472Z,20704
2018-03-14T11:36:26.982Z,18112
2018-03-14T11:37:26.985Z,16896
2018-03-14T11:38:26.708Z,16520
2018-03-14T11:39:26.695Z,16368
2018-03-14T11:40:27.219Z,16152
2018-03-14T11:41:27.210Z,16992
2018-03-14T11:42:26.739Z,19200
2018-03-14T11:43:26.653Z,22048
2018-03-14T11:44:26.917Z,26880
2018-03-14T11:45:26.837Z,24832
2018-03-14T11:46:26.886Z,30144
2018-03-14T11:47:26.879Z,67296
2018-03-14T11:48:26.923Z,68256
2018-03-14T11:49:26.859Z,66624
2018-03-14T11:50:27.110Z,85920
2018-03-14T11:51:27.103Z,98304
2018-03-14T11:52:26.833Z,91008
2018-03-14T11:53:26.830Z,88128
2018-03-14T11:54:26.596Z,82304
2018-03-14T11:55:26.814Z,31840
2018-03-14T11:56:26.809Z,43424
2018-03-14T11:57:26.578Z,39712
2018-03-14T11:58:26.528Z,56736
2018-03-14T11:59:26.791Z,43232
2018-03-14T12:00:26.522Z,38240
2018-03-14T12:01:26.521Z,64864
2018-03-14T12:02:27.043Z,65472
2018-03-14T12:03:27.047Z,69856
2018-03-14T12:04:26.860Z,65760
2018-03-14T12:05:26.501Z,68256
2018-03-14T12:06:26.769Z,73440
2018-03-14T12:07:26.980Z,33728
2018-03-14T12:08:26.760Z,28320
2018-03-14T12:09:27.019Z,66144
2018-03-14T12:10:26.512Z,78720
2018-03-14T12:11:26.488Z,77792
2018-03-14T12:12:26.833Z,73376
2018-03-14T12:13:26.760Z,71648
2018-03-14T12:14:26.479Z,65600
2018-03-14T12:15:26.748Z,91136
2018-03-14T12:16:26.484Z,88544
2018-03-14T12:17:26.217Z,54304
2018-03-14T12:18:26.749Z,93344
2018-03-14T12:19:26.766Z,85632
2018-03-14T12:20:26.739Z,82976
2018-03-14T12:21:26.738Z,38048
2018-03-14T12:22:26.479Z,61088
2018-03-14T12:23:26.581Z,31008
2018-03-14T12:24:26.216Z,20512
2018-03-14T12:25:26.748Z,35744
2018-03-14T12:26:27.085Z,21600
2018-03-14T12:27:26.485Z,19648
2018-03-14T12:28:26.753Z,24736
2018-03-14T12:29:27.021Z,22816
2018-03-14T12:30:27.027Z,25440
2018-03-14T12:31:26.482Z,65184
2018-03-14T12:32:26.480Z,38816
2018-03-14T12:33:26.260Z,33408
2018-03-14T12:34:26.752Z,26976
2018-03-14T12:35:26.479Z,27520
2018-03-14T12:36:26.751Z,23264
2018-03-14T12:37:26.472Z,26336
2018-03-14T12:38:26.754Z,24384
2018-03-14T12:39:27.000Z,28096
2018-03-14T12:40:26.736Z,25664
2018-03-14T12:41:26.464Z,21088
2018-03-14T12:42:26.732Z,28608
2018-03-14T12:43:26.461Z,45248
2018-03-14T12:44:26.191Z,26560
2018-03-14T12:45:26.193Z,27776
2018-03-14T12:46:26.983Z,26944
2018-03-14T12:47:26.985Z,24928
2018-03-14T12:48:26.720Z,26944
2018-03-14T12:49:26.177Z,49088
2018-03-14T12:50:26.236Z,74976
2018-03-14T12:51:26.437Z,81152
2018-03-14T12:52:26.743Z,77248
2018-03-14T12:53:26.162Z,75104
2018-03-14T12:54:26.421Z,73088
2018-03-14T12:55:26.679Z,73280
2018-03-14T12:56:26.417Z,75296
2018-03-14T12:57:26.676Z,75200
2018-03-14T12:58:26.734Z,76960
2018-03-14T12:59:26.406Z,78560
2018-03-14T13:00:26.671Z,77952
2018-03-14T13:01:26.667Z,70752
2018-03-14T13:02:26.965Z,77696
2018-03-14T13:03:26.930Z,77056
2018-03-14T13:04:26.137Z,76768
2018-03-14T13:05:26.669Z,75648
2018-03-14T13:06:26.663Z,75296
2018-03-14T13:07:26.667Z,74592
2018-03-14T13:08:26.136Z,76544
2018-03-14T13:09:26.133Z,80544
2018-03-14T13:10:26.405Z,82016
2018-03-14T13:11:26.138Z,81952
2018-03-14T13:12:26.142Z,81664
2018-03-14T13:13:26.405Z,78592
2018-03-14T13:14:26.675Z,72416
2018-03-14T13:15:26.947Z,70272
2018-03-14T13:16:26.414Z,73568
2018-03-14T13:17:26.419Z,67968
2018-03-14T13:18:26.949Z,53920
2018-03-14T13:19:26.957Z,29312
2018-03-14T13:20:26.431Z,47680
2018-03-14T13:21:26.694Z,57824
2018-03-14T13:22:26.431Z,57024
2018-03-14T13:23:26.426Z,38304
2018-03-14T13:24:26.694Z,55488
2018-03-14T13:25:26.433Z,58880
2018-03-14T13:26:26.697Z,45344
2018-03-14T13:27:26.432Z,11892
2018-03-14T13:28:27.037Z,52992
2018-03-14T13:29:26.694Z,61632
2018-03-14T13:30:26.433Z,63104
2018-03-14T13:31:26.432Z,64000
2018-03-14T13:32:26.435Z,63840
2018-03-14T13:33:26.976Z,62688
2018-03-14T13:34:26.433Z,60928
2018-03-14T13:35:26.435Z,59744
2018-03-14T13:36:26.706Z,60128
2018-03-14T13:37:26.703Z,59968
2018-03-14T13:38:26.762Z,58208
2018-03-14T13:39:26.712Z,54112
2018-03-14T13:40:26.706Z,50528
2018-03-14T13:41:26.436Z,48768
2018-03-14T13:42:26.438Z,50080
2018-03-14T13:43:26.433Z,52320
2018-03-14T13:44:26.439Z,55168